createdAt,value
2018-05-16T00:01:24.017Z,4.60
2018-05-16T00:03:51.550Z,4.33
2018-05-16T00:06:19.044Z,5.20
2018-05-16T00:08:46.549Z,4.77
2018-05-16T00:11:14.041Z,5.43
2018-05-16T00:13:41.848Z,6.00
2018-05-16T00:16:09.336Z,4.53
2018-05-16T00:18:36.859Z,6.37
2018-05-16T00:21:04.377Z,5.63
2018-05-16T00:23:31.861Z,6.60
2018-05-16T00:25:59.496Z,5.90
2018-05-16T00:28:26.981Z,6.83
2018-05-16T00:30:54.464Z,5.77
2018-05-16T00:33:21.971Z,6.17
2018-05-16T00:35:49.457Z,7.97
2018-05-16T00:38:17.001Z,7.50
2018-05-16T00:40:44.490Z,6.20
2018-05-16T00:43:11.973Z,7.00
2018-05-16T00:45:39.507Z,6.90
2018-05-16T00:48:07.004Z,7.30
2018-05-16T00:50:34.709Z,7.10
2018-05-16T00:53:02.207Z,7.27
2018-05-16T00:55:29.686Z,7.70
2018-05-16T00:57:57.214Z,8.70
2018-05-16T01:00:24.693Z,8.07
2018-05-16T01:02:52.216Z,9.20
2018-05-16T01:05:19.702Z,7.40
2018-05-16T01:07:47.186Z,8.23
2018-05-16T01:10:14.696Z,9.37
2018-05-16T01:12:42.180Z,9.67
2018-05-16T01:15:09.701Z,8.07
2018-05-16T01:17:37.220Z,9.63
2018-05-16T01:20:04.729Z,8.73
2018-05-16T01:22:32.253Z,9.43
2018-05-16T01:24:59.799Z,10.13
2018-05-16T01:27:27.325Z,9.53
2018-05-16T01:29:54.836Z,8.80
2018-05-16T01:32:22.333Z,9.70
2018-05-16T01:34:49.873Z,9.57
2018-05-16T01:37:17.373Z,9.50
2018-05-16T01:39:45.100Z,9.37
2018-05-16T01:42:12.590Z,6.33
2018-05-16T01:44:40.160Z,5.63
2018-05-16T01:47:07.689Z,5.70
2018-05-16T01:49:35.173Z,6.83
2018-05-16T01:52:02.690Z,6.13
2018-05-16T01:54:30.174Z,5.80
2018-05-16T01:56:57.899Z,7.13
2018-05-16T01:59:25.381Z,7.33
2018-05-16T02:01:52.869Z,6.47
2018-05-16T02:04:20.397Z,6.23
2018-05-16T02:06:47.877Z,6.20
2018-05-16T02:09:15.764Z,5.87
2018-05-16T02:11:43.248Z,6.67
2018-05-16T02:14:10.729Z,6.90
2018-05-16T02:16:38.242Z,7.20
2018-05-16T02:19:05.732Z,7.17
2018-05-16T02:21:33.517Z,7.07
2018-05-16T02:24:01.003Z,7.53
2018-05-16T02:26:28.493Z,8.00
2018-05-16T02:28:56.057Z,7.60
2018-05-16T02:31:23.545Z,7.67
2018-05-16T02:33:51.289Z,7.53
2018-05-16T02:36:18.770Z,5.73
2018-05-16T02:38:46.248Z,6.20
2018-05-16T02:41:13.760Z,6.77
2018-05-16T02:43:41.257Z,6.93
2018-05-16T02:46:08.913Z,7.47
2018-05-16T02:48:36.392Z,7.20
2018-05-16T02:51:03.899Z,8.23
2018-05-16T02:53:31.418Z,6.73
2018-05-16T02:55:58.940Z,7.00
2018-05-16T02:58:26.697Z,8.03
2018-05-16T03:00:54.185Z,8.53
2018-05-16T03:03:21.669Z,8.40
2018-05-16T03:05:49.173Z,8.20
2018-05-16T03:08:16.661Z,8.80
2018-05-16T03:10:44.194Z,8.47
2018-05-16T03:13:11.686Z,9.03
2018-05-16T03:15:39.165Z,8.30
2018-05-16T03:18:06.677Z,10.07
2018-05-16T03:20:34.170Z,10.20
2018-05-16T03:23:02.114Z,8.50
2018-05-16T03:25:29.601Z,9.70
2018-05-16T03:27:57.092Z,10.87
2018-05-16T03:30:24.609Z,13.30
2018-05-16T03:32:52.097Z,14.67
2018-05-16T03:35:20.077Z,13.27
2018-05-16T03:37:47.567Z,14.10
2018-05-16T03:40:15.070Z,13.30
2018-05-16T03:42:42.593Z,13.63
2018-05-16T03:45:10.084Z,14.60
2018-05-16T03:47:37.743Z,12.70
2018-05-16T03:50:05.328Z,13.30
2018-05-16T03:52:32.825Z,10.40
2018-05-16T03:55:00.346Z,10.33
2018-05-16T03:57:39.626Z,10.33
2018-05-16T04:00:19.189Z,11.13
2018-05-16T04:02:58.873Z,10.87
2018-05-16T04:05:26.384Z,10.80
2018-05-16T04:07:53.882Z,10.70
2018-05-16T04:10:21.370Z,8.37
2018-05-16T04:12:48.888Z,9.27
2018-05-16T04:15:16.393Z,10.00
2018-05-16T04:17:43.876Z,7.70
2018-05-16T04:20:11.433Z,7.67
2018-05-16T04:22:38.923Z,7.63
2018-05-16T04:25:06.413Z,6.90
2018-05-16T04:27:33.960Z,6.60
2018-05-16T04:30:01.457Z,7.77
2018-05-16T04:32:28.941Z,6.67
2018-05-16T04:34:56.477Z,5.70
2018-05-16T04:37:23.977Z,4.83
2018-05-16T04:39:51.460Z,5.70
2018-05-16T04:42:18.981Z,5.30
2018-05-16T04:44:46.465Z,5.50
2018-05-16T04:47:13.953Z,4.93
2018-05-16T04:49:41.674Z,4.40
2018-05-16T04:52:09.185Z,4.60
2018-05-16T04:54:36.697Z,4.50
2018-05-16T04:57:04.363Z,4.63
2018-05-16T04:59:31.853Z,3.60
2018-05-16T05:01:59.337Z,4.50
2018-05-16T05:04:27.085Z,3.50
2018-05-16T05:06:54.561Z,3.60
2018-05-16T05:09:22.050Z,3.73
2018-05-16T05:11:49.589Z,4.03
2018-05-16T05:14:17.089Z,4.03
2018-05-16T05:16:44.569Z,3.37
2018-05-16T05:19:12.090Z,3.60
2018-05-16T05:21:39.599Z,4.73
2018-05-16T05:24:07.147Z,4.00
2018-05-16T05:26:34.819Z,3.60
2018-05-16T05:29:02.315Z,3.27
2018-05-16T05:31:29.801Z,4.17
2018-05-16T05:33:57.305Z,4.80
2018-05-16T05:36:24.798Z,4.00
2018-05-16T05:38:52.365Z,3.00
2018-05-16T05:41:19.837Z,3.90
2018-05-16T05:43:47.338Z,4.37
2018-05-16T05:46:14.845Z,4.60
2018-05-16T05:48:42.346Z,4.47
2018-05-16T05:51:10.041Z,4.57
2018-05-16T05:53:37.526Z,4.50
2018-05-16T05:56:05.030Z,4.43
2018-05-16T05:58:32.543Z,4.40
2018-05-16T06:01:00.046Z,4.73
2018-05-16T06:03:27.611Z,4.43
2018-05-16T06:05:55.093Z,4.20
2018-05-16T06:08:22.593Z,4.47
2018-05-16T06:10:50.150Z,3.47
2018-05-16T06:13:17.623Z,3.40
2018-05-16T06:15:45.158Z,3.93
2018-05-16T06:18:12.649Z,3.80
2018-05-16T06:20:40.132Z,3.33
2018-05-16T06:23:07.637Z,4.23
2018-05-16T06:25:35.124Z,4.60
2018-05-16T06:28:02.976Z,3.50
2018-05-16T06:30:30.461Z,3.60
2018-05-16T06:32:57.954Z,3.33
2018-05-16T06:35:25.465Z,4.90
2018-05-16T06:37:52.956Z,3.40
2018-05-16T06:40:20.688Z,4.90
2018-05-16T06:42:48.169Z,3.73
2018-05-16T06:45:15.664Z,4.13
2018-05-16T06:47:43.172Z,3.10
2018-05-16T06:50:10.657Z,3.60
2018-05-16T06:52:38.180Z,3.70
2018-05-16T06:55:05.660Z,3.07
2018-05-16T06:57:33.153Z,3.30
2018-05-16T07:00:00.662Z,3.43
2018-05-16T07:02:28.149Z,3.40
2018-05-16T07:04:55.878Z,3.70
2018-05-16T07:07:23.366Z,3.33
2018-05-16T07:09:50.873Z,3.90
2018-05-16T07:12:18.404Z,4.07
2018-05-16T07:14:45.901Z,3.30
2018-05-16T07:17:13.517Z,4.30
2018-05-16T07:19:41.010Z,3.53
2018-05-16T07:22:08.501Z,4.23
2018-05-16T07:24:36.010Z,3.20
2018-05-16T07:27:03.497Z,3.87
2018-05-16T07:29:31.173Z,4.30
2018-05-16T07:31:58.657Z,3.07
2018-05-16T07:34:26.137Z,2.87
2018-05-16T07:36:53.640Z,3.77
2018-05-16T07:39:21.117Z,3.30
2018-05-16T07:41:48.678Z,3.63
2018-05-16T07:44:16.182Z,3.37
2018-05-16T07:46:43.677Z,3.13
2018-05-16T07:49:11.218Z,2.87
2018-05-16T07:51:38.708Z,3.20
2018-05-16T07:54:06.270Z,2.97
2018-05-16T07:56:33.753Z,3.33
2018-05-16T07:59:01.243Z,3.50
2018-05-16T08:01:28.761Z,3.10
2018-05-16T08:03:56.248Z,3.10
2018-05-16T08:06:23.769Z,2.67
2018-05-16T08:08:51.249Z,3.07
2018-05-16T08:11:18.729Z,2.63
2018-05-16T08:13:46.240Z,2.80
2018-05-16T08:16:13.734Z,2.23
2018-05-16T08:18:41.393Z,2.27
2018-05-16T08:21:08.868Z,2.00
2018-05-16T08:23:36.357Z,2.90
2018-05-16T08:26:03.867Z,2.40
2018-05-16T08:28:31.356Z,2.10
2018-05-16T08:30:58.868Z,2.30
2018-05-16T08:33:26.366Z,1.90
2018-05-16T08:35:53.865Z,1.83
2018-05-16T08:38:21.386Z,2.07
2018-05-16T08:40:48.877Z,2.67
2018-05-16T08:43:16.649Z,2.80
2018-05-16T08:45:44.130Z,2.80
2018-05-16T08:48:11.621Z,2.90
2018-05-16T08:50:39.129Z,2.60
2018-05-16T08:53:06.620Z,2.40
2018-05-16T08:55:34.353Z,2.00
2018-05-16T08:58:01.844Z,2.37
2018-05-16T09:00:29.342Z,3.37
2018-05-16T09:02:56.861Z,2.77
2018-05-16T09:05:24.360Z,3.10
2018-05-16T09:07:52.134Z,2.70
2018-05-16T09:10:19.640Z,2.30
2018-05-16T09:12:47.122Z,2.73
2018-05-16T09:15:14.633Z,3.10
2018-05-16T09:17:42.122Z,2.90
2018-05-16T09:20:09.891Z,3.20
2018-05-16T09:22:37.381Z,3.17
2018-05-16T09:25:04.916Z,3.10
2018-05-16T09:27:32.403Z,2.73
2018-05-16T09:29:59.889Z,3.97
2018-05-16T09:32:27.637Z,3.20
2018-05-16T09:34:55.121Z,2.83
2018-05-16T09:37:22.685Z,2.80
2018-05-16T09:39:50.137Z,3.30
2018-05-16T09:42:17.625Z,2.30
2018-05-16T09:44:45.289Z,3.30
2018-05-16T09:47:12.781Z,3.00
2018-05-16T09:49:40.273Z,3.40
2018-05-16T09:52:07.784Z,3.60
2018-05-16T09:54:35.269Z,3.20
2018-05-16T09:57:02.800Z,3.33
2018-05-16T09:59:30.277Z,3.60
2018-05-16T10:01:57.753Z,3.03
2018-05-16T10:04:25.277Z,3.50
2018-05-16T10:06:52.774Z,3.63
2018-05-16T10:09:20.449Z,3.63
2018-05-16T10:11:47.941Z,3.23
2018-05-16T10:14:15.433Z,3.73
2018-05-16T10:16:42.959Z,4.00
2018-05-16T10:19:10.437Z,3.53
2018-05-16T10:21:37.949Z,4.50
2018-05-16T10:24:05.449Z,3.47
2018-05-16T10:26:32.945Z,3.40
2018-05-16T10:29:00.454Z,3.60
2018-05-16T10:31:27.945Z,3.53
2018-05-16T10:33:55.609Z,4.20
2018-05-16T10:36:23.085Z,3.50
2018-05-16T10:38:50.573Z,2.97
2018-05-16T10:41:18.155Z,3.87
2018-05-16T10:43:45.604Z,3.27
2018-05-16T10:46:13.470Z,3.80
2018-05-16T10:48:40.952Z,3.77
2018-05-16T10:51:08.447Z,3.70
2018-05-16T10:53:35.965Z,4.03
2018-05-16T10:56:03.457Z,3.30
2018-05-16T10:58:31.117Z,3.17
2018-05-16T11:00:58.602Z,3.17
2018-05-16T11:03:26.106Z,3.80
2018-05-16T11:05:53.628Z,3.83
2018-05-16T11:08:21.120Z,3.80
2018-05-16T11:10:48.635Z,3.40
2018-05-16T11:13:16.133Z,3.80
2018-05-16T11:15:43.633Z,3.70
2018-05-16T11:18:11.138Z,4.37
2018-05-16T11:20:38.683Z,3.97
2018-05-16T11:23:06.205Z,3.83
2018-05-16T11:25:33.709Z,4.27
2018-05-16T11:28:01.201Z,4.77
2018-05-16T11:30:28.721Z,3.00
2018-05-16T11:32:56.221Z,4.23
2018-05-16T11:35:23.881Z,4.07
2018-05-16T11:37:51.381Z,3.53
2018-05-16T11:40:18.890Z,3.80
2018-05-16T11:42:46.415Z,3.60
2018-05-16T11:45:13.901Z,2.90
2018-05-16T11:47:41.657Z,4.00
2018-05-16T11:50:09.149Z,4.20
2018-05-16T11:52:36.629Z,3.60
2018-05-16T11:55:04.142Z,4.30
2018-05-16T11:57:31.633Z,3.43
2018-05-16T11:59:59.161Z,4.10
2018-05-16T12:02:26.649Z,4.00
2018-05-16T12:04:54.133Z,4.33
2018-05-16T12:07:21.654Z,4.13
2018-05-16T12:09:49.149Z,4.13
2018-05-16T12:12:17.164Z,4.37
2018-05-16T12:14:44.685Z,4.17
2018-05-16T12:17:12.185Z,4.40
2018-05-16T12:19:39.694Z,3.90
2018-05-16T12:22:07.181Z,4.10
2018-05-16T12:24:34.831Z,4.57
2018-05-16T12:27:02.324Z,4.00
2018-05-16T12:29:29.813Z,3.70
2018-05-16T12:31:57.349Z,4.03
2018-05-16T12:34:24.837Z,3.73
2018-05-16T12:36:52.469Z,4.10
2018-05-16T12:39:19.949Z,3.83
2018-05-16T12:41:47.458Z,3.90
2018-05-16T12:44:14.973Z,3.43
2018-05-16T12:46:42.477Z,3.70
2018-05-16T12:49:10.333Z,3.83
2018-05-16T12:51:37.813Z,3.70
2018-05-16T12:54:05.305Z,3.40
2018-05-16T12:56:32.809Z,2.90
2018-05-16T12:59:00.284Z,3.63
2018-05-16T13:01:28.007Z,3.67
2018-05-16T13:03:55.689Z,4.20
2018-05-16T13:06:23.182Z,3.30
2018-05-16T13:08:50.695Z,3.40
2018-05-16T13:11:18.177Z,3.97
2018-05-16T13:13:45.705Z,3.73
2018-05-16T13:16:13.217Z,3.23
2018-05-16T13:18:42.617Z,4.93
2018-05-16T13:21:10.141Z,3.67
2018-05-16T13:23:37.621Z,3.47
2018-05-16T13:26:05.572Z,4.10
2018-05-16T13:28:33.076Z,3.30
2018-05-16T13:31:00.570Z,3.67
2018-05-16T13:33:28.105Z,3.37
2018-05-16T13:35:55.589Z,3.30
2018-05-16T13:38:23.426Z,3.83
2018-05-16T13:40:50.914Z,3.40
2018-05-16T13:43:18.418Z,3.40
2018-05-16T13:45:45.921Z,4.00
2018-05-16T13:48:13.431Z,3.27
2018-05-16T13:50:40.973Z,3.33
2018-05-16T13:53:08.453Z,3.40
2018-05-16T13:55:35.952Z,3.27
2018-05-16T13:58:03.461Z,3.50
2018-05-16T14:00:30.963Z,3.80
2018-05-16T14:02:58.669Z,3.47
2018-05-16T14:05:26.157Z,2.93
2018-05-16T14:07:53.637Z,2.80
2018-05-16T14:10:21.149Z,3.47
2018-05-16T14:12:48.633Z,4.50
2018-05-16T14:15:16.612Z,4.03
2018-05-16T14:17:44.021Z,4.63
2018-05-16T14:20:11.551Z,4.10
2018-05-16T14:22:39.098Z,4.47
2018-05-16T14:25:06.592Z,3.97
2018-05-16T14:27:34.258Z,4.53
2018-05-16T14:30:01.750Z,4.63
2018-05-16T14:32:29.233Z,4.53
2018-05-16T14:34:56.747Z,4.43
2018-05-16T14:37:24.229Z,4.90
2018-05-16T14:39:52.113Z,3.60
2018-05-16T14:42:19.637Z,3.30
2018-05-16T14:44:47.117Z,3.00
2018-05-16T14:47:14.625Z,2.50
2018-05-16T14:49:42.126Z,3.50
2018-05-16T14:52:09.649Z,2.97
2018-05-16T14:54:38.005Z,2.80
2018-05-16T14:57:05.497Z,2.00
2018-05-16T14:59:33.005Z,2.23
2018-05-16T15:02:00.497Z,2.30
2018-05-16T15:04:28.166Z,2.33
2018-05-16T15:06:55.738Z,1.80
2018-05-16T15:09:23.229Z,2.10
2018-05-16T15:11:50.744Z,2.50
2018-05-16T15:14:18.256Z,2.77
2018-05-16T15:16:46.224Z,2.93
2018-05-16T15:19:13.713Z,2.43
2018-05-16T15:21:41.214Z,3.00
2018-05-16T15:24:08.724Z,2.83
2018-05-16T15:26:36.216Z,2.87
2018-05-16T15:29:04.074Z,3.20
2018-05-16T15:31:31.571Z,3.67
2018-05-16T15:33:59.069Z,3.23
2018-05-16T15:36:26.585Z,3.77
2018-05-16T15:38:54.090Z,3.70
2018-05-16T15:41:21.612Z,4.10
2018-05-16T15:43:49.101Z,4.37
2018-05-16T15:46:16.581Z,4.83
2018-05-16T15:48:44.156Z,3.83
2018-05-16T15:51:11.644Z,4.37
2018-05-16T15:53:39.606Z,4.33
2018-05-16T15:56:07.105Z,4.13
2018-05-16T15:58:34.601Z,3.70
2018-05-16T16:01:02.109Z,4.43
2018-05-16T16:03:29.605Z,4.53
2018-05-16T16:05:57.249Z,4.53
2018-05-16T16:08:24.757Z,3.83
2018-05-16T16:10:52.305Z,4.50
2018-05-16T16:13:19.813Z,3.50
2018-05-16T16:15:47.308Z,3.80
2018-05-16T16:18:15.316Z,3.63
2018-05-16T16:20:42.805Z,4.60
2018-05-16T16:23:10.306Z,4.93
2018-05-16T16:25:37.821Z,4.20
2018-05-16T16:28:05.301Z,4.20
2018-05-16T16:30:32.813Z,3.60
2018-05-16T16:33:00.733Z,4.13
2018-05-16T16:35:28.221Z,4.00
2018-05-16T16:37:55.748Z,3.87
2018-05-16T16:40:23.237Z,3.87
2018-05-16T16:42:50.921Z,4.40
2018-05-16T16:45:18.421Z,3.77
2018-05-16T16:47:45.912Z,4.90
2018-05-16T16:50:13.472Z,4.47
2018-05-16T16:52:40.937Z,4.00
2018-05-16T16:55:08.460Z,4.23
2018-05-16T16:57:35.969Z,4.03
2018-05-16T17:00:03.478Z,4.17
2018-05-16T17:02:30.989Z,3.40
2018-05-16T17:04:58.489Z,3.90
2018-05-16T17:07:26.412Z,4.30
2018-05-16T17:09:53.906Z,3.20
2018-05-16T17:12:21.413Z,4.03
2018-05-16T17:14:48.944Z,3.47
2018-05-16T17:17:17.118Z,4.50
2018-05-16T17:19:44.657Z,4.10
2018-05-16T17:22:12.169Z,4.13
2018-05-16T17:24:39.655Z,3.27
2018-05-16T17:27:07.165Z,3.10
2018-05-16T17:29:34.653Z,3.83
2018-05-16T17:32:02.574Z,2.90
2018-05-16T17:34:30.081Z,2.80
2018-05-16T17:36:57.563Z,3.00
2018-05-16T17:39:25.081Z,3.87
2018-05-16T17:41:52.598Z,2.63
2018-05-16T17:44:20.333Z,3.37
2018-05-16T17:46:47.853Z,3.97
2018-05-16T17:49:15.341Z,3.70
2018-05-16T17:51:42.864Z,3.60
2018-05-16T17:54:10.360Z,4.40
2018-05-16T17:56:38.001Z,3.80
2018-05-16T17:59:05.497Z,4.20
2018-05-16T18:01:32.987Z,4.07
2018-05-16T18:04:00.490Z,3.80
2018-05-16T18:06:28.714Z,4.77
2018-05-16T18:08:56.367Z,4.90
2018-05-16T18:11:23.870Z,3.97
2018-05-16T18:14:03.488Z,4.97
2018-05-16T18:16:42.723Z,3.53
2018-05-16T18:19:10.273Z,3.30
2018-05-16T18:21:37.790Z,4.77
2018-05-16T18:24:05.293Z,4.43
2018-05-16T18:26:33.741Z,5.20
2018-05-16T18:29:01.233Z,4.13
2018-05-16T18:31:28.857Z,4.07
2018-05-16T18:33:56.360Z,4.57
2018-05-16T18:36:23.939Z,4.60
2018-05-16T18:38:52.232Z,4.10
2018-05-16T18:41:19.913Z,4.93
2018-05-16T18:43:47.587Z,4.87
2018-05-16T18:46:15.162Z,5.10
2018-05-16T18:48:42.831Z,5.27
2018-05-16T18:51:10.435Z,5.30
2018-05-16T18:53:38.386Z,4.77
2018-05-16T18:56:07.639Z,5.83
2018-05-16T18:58:35.487Z,6.43
2018-05-16T19:01:03.369Z,4.73
2018-05-16T19:03:31.213Z,4.43
2018-05-16T19:05:58.743Z,4.67
2018-05-16T19:08:27.346Z,4.83
2018-05-16T19:10:54.879Z,5.47
2018-05-16T19:13:22.655Z,4.70
2018-05-16T19:15:50.522Z,5.40
2018-05-16T19:18:19.311Z,6.70
2018-05-16T19:20:47.173Z,5.53
2018-05-16T19:23:15.099Z,5.13
2018-05-16T19:25:42.977Z,5.33
2018-05-16T19:28:10.562Z,6.10
2018-05-16T19:30:38.524Z,4.77
2018-05-16T19:33:06.585Z,6.37
2018-05-16T19:35:34.142Z,5.00
2018-05-16T19:38:01.661Z,5.00
2018-05-16T19:40:29.553Z,5.43
2018-05-16T19:42:57.105Z,5.23
2018-05-16T19:45:24.789Z,6.10
2018-05-16T19:47:52.561Z,5.80
2018-05-16T19:50:20.104Z,5.03
2018-05-16T19:52:48.117Z,4.83
2018-05-16T19:55:15.711Z,6.10
2018-05-16T19:57:43.558Z,5.73
2018-05-16T20:00:12.336Z,5.57
2018-05-16T20:02:40.425Z,4.97
2018-05-16T20:05:08.439Z,6.10
2018-05-16T20:07:36.308Z,6.03
2018-05-16T20:10:04.120Z,4.40
2018-05-16T20:12:31.674Z,5.47
2018-05-16T20:14:59.324Z,5.90
2018-05-16T20:17:27.247Z,6.50
2018-05-16T20:19:54.837Z,5.70
2018-05-16T20:22:22.547Z,5.40
2018-05-16T20:24:50.121Z,5.47
2018-05-16T20:27:18.006Z,5.97
2018-05-16T20:29:45.576Z,6.20
2018-05-16T20:32:13.093Z,5.80
2018-05-16T20:34:40.616Z,6.97
2018-05-16T20:37:08.110Z,6.77
2018-05-16T20:39:35.655Z,6.80
2018-05-16T20:42:03.166Z,6.50
2018-05-16T20:44:30.656Z,5.97
2018-05-16T20:46:58.379Z,6.23
2018-05-16T20:49:25.878Z,7.07
2018-05-16T20:51:53.412Z,5.60
2018-05-16T20:54:20.936Z,5.93
2018-05-16T20:56:48.451Z,7.00
2018-05-16T20:59:16.409Z,7.40
2018-05-16T21:01:43.898Z,6.80
2018-05-16T21:04:11.429Z,5.93
2018-05-16T21:06:38.943Z,7.57
2018-05-16T21:09:06.432Z,6.70
2018-05-16T21:11:34.069Z,7.07
2018-05-16T21:14:01.577Z,7.10
2018-05-16T21:16:29.062Z,6.57
2018-05-16T21:18:56.612Z,7.27
2018-05-16T21:21:24.093Z,7.60
2018-05-16T21:23:51.725Z,7.30
2018-05-16T21:26:19.209Z,7.30
2018-05-16T21:28:46.768Z,7.70
2018-05-16T21:31:14.248Z,7.90
2018-05-16T21:33:41.749Z,7.50
2018-05-16T21:36:09.505Z,7.67
2018-05-16T21:38:36.988Z,8.10
2018-05-16T21:41:04.486Z,7.80
2018-05-16T21:43:32.001Z,6.60
2018-05-16T21:45:59.485Z,6.83
2018-05-16T21:48:27.237Z,6.87
2018-05-16T21:50:54.733Z,6.80
2018-05-16T21:53:22.213Z,7.33
2018-05-16T21:55:49.731Z,6.77
2018-05-16T21:58:17.252Z,6.57
2018-05-16T22:00:44.900Z,7.53
2018-05-16T22:03:12.385Z,5.67
2018-05-16T22:05:39.869Z,6.00
2018-05-16T22:08:07.373Z,6.00
2018-05-16T22:10:34.910Z,6.10
2018-05-16T22:13:02.400Z,5.90
2018-05-16T22:15:29.893Z,5.47
2018-05-16T22:17:57.368Z,5.90
2018-05-16T22:20:24.874Z,4.97
2018-05-16T22:22:52.381Z,6.20
2018-05-16T22:25:19.861Z,6.03
2018-05-16T22:27:47.391Z,5.10
2018-05-16T22:30:14.327Z,6.53
2018-05-16T22:32:47.579Z,5.13
2018-05-16T22:35:20.641Z,6.07
2018-05-16T22:37:53.881Z,4.53
2018-05-16T22:40:26.918Z,5.30
2018-05-16T22:42:53.888Z,4.70
2018-05-16T22:45:32.129Z,5.37
2018-05-16T22:47:59.686Z,5.87
2018-05-16T22:50:27.184Z,5.33
2018-05-16T22:52:54.967Z,6.73
2018-05-16T22:55:22.469Z,6.40
2018-05-16T22:57:49.980Z,5.80
2018-05-16T23:00:20.953Z,6.30
2018-05-16T23:02:48.517Z,7.97
2018-05-16T23:05:16.147Z,7.63
2018-05-16T23:07:43.680Z,8.13
2018-05-16T23:10:11.220Z,7.40
2018-05-16T23:12:38.929Z,9.13
2018-05-16T23:15:06.802Z,7.63
2018-05-16T23:17:34.344Z,8.13
2018-05-16T23:20:01.941Z,7.93
2018-05-16T23:22:29.613Z,8.80
2018-05-16T23:24:57.503Z,8.30
2018-05-16T23:27:25.000Z,10.00
2018-05-16T23:29:52.673Z,9.73
2018-05-16T23:32:20.379Z,8.83
2018-05-16T23:34:47.989Z,10.00
2018-05-16T23:37:15.748Z,10.27
2018-05-16T23:39:43.463Z,11.73
2018-05-16T23:42:11.088Z,10.27
2018-05-16T23:44:38.642Z,11.83
2018-05-16T23:47:06.355Z,13.00
2018-05-16T23:49:34.153Z,14.47
2018-05-16T23:52:01.717Z,15.70
2018-05-16T23:54:29.231Z,15.50
2018-05-16T23:56:56.744Z,14.77
2018-05-16T23:59:24.248Z,16.57
